createdAt,value
2018-02-27T00:00:31.910Z,-5.20
2018-02-27T00:02:59.414Z,-5.30
2018-02-27T00:05:26.928Z,-5.30
2018-02-27T00:07:54.420Z,-5.30
2018-02-27T00:10:22.681Z,-5.40
2018-02-27T00:12:50.174Z,-5.40
2018-02-27T00:15:17.651Z,-5.50
2018-02-27T00:17:45.314Z,-5.50
2018-02-27T00:20:12.798Z,-5.50
2018-02-27T00:22:40.275Z,-5.50
2018-02-27T00:25:07.800Z,-5.50
2018-02-27T00:27:35.279Z,-5.50
2018-02-27T00:30:02.925Z,-5.50
2018-02-27T00:32:30.411Z,-5.50
2018-02-27T00:34:57.892Z,-5.60
2018-02-27T00:37:25.414Z,-5.60
2018-02-27T00:39:52.905Z,-5.70
2018-02-27T00:42:21.157Z,-5.70
2018-02-27T00:44:48.678Z,-5.70
2018-02-27T00:47:16.169Z,-5.70
2018-02-27T00:49:43.639Z,-5.60
2018-02-27T00:52:11.169Z,-5.60
2018-02-27T00:54:38.648Z,-5.60
2018-02-27T00:57:06.197Z,-5.50
2018-02-27T00:59:33.834Z,-5.50
2018-02-27T01:02:01.311Z,-5.50
2018-02-27T01:04:28.800Z,-5.50
2018-02-27T01:06:58.088Z,-5.50
2018-02-27T01:09:25.654Z,-5.40
2018-02-27T01:11:53.363Z,-5.40
2018-02-27T01:14:20.846Z,-5.30
2018-02-27T01:16:48.326Z,-5.30
2018-02-27T01:19:15.812Z,-5.30
2018-02-27T01:21:43.313Z,-5.30
2018-02-27T01:24:10.819Z,-5.30
2018-02-27T01:26:38.307Z,-5.20
2018-02-27T01:29:06.560Z,-5.20
2018-02-27T01:31:35.566Z,-5.30
2018-02-27T01:34:03.063Z,-5.30
2018-02-27T01:36:30.548Z,-5.20
2018-02-27T01:38:58.045Z,-5.20
2018-02-27T01:41:26.287Z,-5.20
2018-02-27T01:43:53.781Z,-5.20
2018-02-27T01:46:22.237Z,-5.20
2018-02-27T01:48:49.746Z,-5.30
2018-02-27T01:51:17.245Z,-5.30
2018-02-27T01:53:44.718Z,-5.40
2018-02-27T01:56:12.245Z,-5.40
2018-02-27T01:58:39.758Z,-5.50
2018-02-27T02:01:08.008Z,-5.50
2018-02-27T02:03:35.494Z,-5.60
2018-02-27T02:06:02.996Z,-5.60
2018-02-27T02:08:30.506Z,-5.60
2018-02-27T02:10:58.747Z,-5.70
2018-02-27T02:13:26.221Z,-5.70
2018-02-27T02:15:53.701Z,-5.80
2018-02-27T02:18:21.959Z,-5.90
2018-02-27T02:20:49.429Z,-5.90
2018-02-27T02:23:16.930Z,-5.90
2018-02-27T02:25:44.523Z,-5.90
2018-02-27T02:28:12.200Z,-6.00
2018-02-27T02:30:39.686Z,-6.00
2018-02-27T02:33:07.922Z,-6.10
2018-02-27T02:35:35.407Z,-6.10
2018-02-27T02:38:03.665Z,-6.10
2018-02-27T02:40:31.158Z,-6.10
2018-02-27T02:42:59.392Z,-6.20
2018-02-27T02:45:26.870Z,-6.20
2018-02-27T02:47:54.350Z,-6.20
2018-02-27T02:50:21.839Z,-6.30
2018-02-27T02:52:49.314Z,-6.30
2018-02-27T02:55:16.790Z,-6.30
2018-02-27T02:57:44.258Z,-6.40
2018-02-27T03:00:11.746Z,-6.40
2018-02-27T03:02:39.251Z,-6.40
2018-02-27T03:05:06.730Z,-6.50
2018-02-27T03:07:34.215Z,-6.50
2018-02-27T03:10:02.521Z,-6.60
2018-02-27T03:12:30.003Z,-6.60
2018-02-27T03:14:57.509Z,-6.60
2018-02-27T03:17:25.771Z,-6.70
2018-02-27T03:19:53.281Z,-6.70
2018-02-27T03:22:20.761Z,-6.70
2018-02-27T03:24:48.253Z,-6.80
2018-02-27T03:27:15.738Z,-6.80
2018-02-27T03:29:43.961Z,-6.90
2018-02-27T03:32:11.448Z,-6.90
2018-02-27T03:34:39.695Z,-6.90
2018-02-27T03:37:07.194Z,-6.90
2018-02-27T03:39:35.434Z,-7.00
2018-02-27T03:42:02.970Z,-7.00
2018-02-27T03:44:30.435Z,-6.90
2018-02-27T03:46:57.966Z,-7.00
2018-02-27T03:49:25.447Z,-7.00
2018-02-27T03:51:52.948Z,-7.00
2018-02-27T03:54:20.448Z,-7.10
2018-02-27T03:56:47.914Z,-7.10
2018-02-27T03:59:15.403Z,-7.10
2018-02-27T04:01:42.869Z,-7.10
2018-02-27T04:04:10.366Z,-7.20
2018-02-27T04:06:38.618Z,-7.20
2018-02-27T04:09:06.104Z,-7.30
2018-02-27T04:11:34.367Z,-7.30
2018-02-27T04:14:02.630Z,-7.30
2018-02-27T04:16:30.112Z,-7.30
2018-02-27T04:18:58.390Z,-7.30
2018-02-27T04:21:26.632Z,-7.30
2018-02-27T04:23:54.169Z,-7.30
2018-02-27T04:26:21.633Z,-7.40
2018-02-27T04:28:50.112Z,-7.40
2018-02-27T04:31:17.655Z,-7.50
2018-02-27T04:33:45.142Z,-7.60
2018-02-27T04:36:12.633Z,-7.60
2018-02-27T04:38:40.960Z,-7.50
2018-02-27T04:41:08.442Z,-7.60
2018-02-27T04:43:35.912Z,-7.50
2018-02-27T04:46:03.436Z,-7.50
2018-02-27T04:48:30.934Z,-7.60
2018-02-27T04:50:58.411Z,-7.60
2018-02-27T04:53:26.698Z,-7.60
2018-02-27T04:55:54.254Z,-7.60
2018-02-27T04:58:22.495Z,-7.60
2018-02-27T05:00:49.987Z,-7.60
2018-02-27T05:03:17.468Z,-7.60
2018-02-27T05:05:44.950Z,-7.60
2018-02-27T05:08:12.438Z,-7.60
2018-02-27T05:10:39.933Z,-7.70
2018-02-27T05:13:07.416Z,-7.70
2018-02-27T05:15:34.897Z,-7.70
2018-02-27T05:18:02.392Z,-7.70
2018-02-27T05:20:30.645Z,-7.70
2018-02-27T05:22:58.158Z,-7.80
2018-02-27T05:25:25.621Z,-7.70
2018-02-27T05:27:53.112Z,-7.80
2018-02-27T05:30:20.589Z,-7.80
2018-02-27T05:32:48.117Z,-7.90
2018-02-27T05:35:15.581Z,-7.90
2018-02-27T05:37:43.680Z,-8.00
2018-02-27T05:40:11.977Z,-7.90
2018-02-27T05:42:40.216Z,-7.90
2018-02-27T05:45:07.707Z,-7.90
2018-02-27T05:47:35.971Z,-8.00
2018-02-27T05:50:03.574Z,-8.00
2018-02-27T05:52:31.036Z,-8.00
2018-02-27T05:54:58.520Z,-7.90
2018-02-27T05:57:25.999Z,-7.90
2018-02-27T05:59:53.489Z,-7.90
2018-02-27T06:02:20.974Z,-7.90
2018-02-27T06:04:48.487Z,-7.90
2018-02-27T06:07:15.961Z,-7.90
2018-02-27T06:09:44.238Z,-7.90
2018-02-27T06:12:12.474Z,-8.00
2018-02-27T06:14:39.978Z,-8.00
2018-02-27T06:17:07.448Z,-8.00
2018-02-27T06:19:34.927Z,-8.10
2018-02-27T06:22:02.453Z,-8.10
2018-02-27T06:24:30.705Z,-8.10
2018-02-27T06:26:58.215Z,-8.10
2018-02-27T06:29:25.670Z,-8.10
2018-02-27T06:31:53.188Z,-8.10
2018-02-27T06:34:20.650Z,-8.00
2018-02-27T06:36:48.930Z,-7.80
2018-02-27T06:39:17.170Z,-7.80
2018-02-27T06:41:44.735Z,-7.80
2018-02-27T06:44:12.209Z,-7.80
2018-02-27T06:46:39.708Z,-7.60
2018-02-27T06:49:07.190Z,-7.50
2018-02-27T06:51:34.728Z,-7.40
2018-02-27T06:54:02.253Z,-7.30
2018-02-27T06:56:29.743Z,-7.20
2018-02-27T06:58:57.237Z,-7.10
2018-02-27T07:01:24.735Z,-7.10
2018-02-27T07:03:52.234Z,-7.00
2018-02-27T07:06:19.734Z,-7.00
2018-02-27T07:08:47.248Z,-7.00
2018-02-27T07:11:14.735Z,-7.00
2018-02-27T07:13:42.251Z,-7.00
2018-02-27T07:16:09.726Z,-6.90
2018-02-27T07:18:37.219Z,-6.90
2018-02-27T07:21:04.708Z,-6.80
2018-02-27T07:23:32.998Z,-6.70
2018-02-27T07:26:01.344Z,-6.60
2018-02-27T07:28:28.861Z,-6.60
2018-02-27T07:30:56.352Z,-6.40
2018-02-27T07:33:23.835Z,-6.30
2018-02-27T07:35:51.328Z,-6.30
2018-02-27T07:38:18.853Z,-6.20
2018-02-27T07:40:47.096Z,-5.80
2018-02-27T07:43:14.563Z,-5.80
2018-02-27T07:45:42.040Z,-5.60
2018-02-27T07:48:09.520Z,-4.80
2018-02-27T07:50:37.848Z,-2.70
2018-02-27T07:53:05.363Z,-2.70
2018-02-27T07:55:32.870Z,-2.00
2018-02-27T07:58:00.361Z,-1.20
2018-02-27T08:00:27.839Z,-0.90
2018-02-27T08:02:56.080Z,-0.10
2018-02-27T08:05:23.586Z,-0.10
2018-02-27T08:07:51.100Z,-0.20
2018-02-27T08:10:18.573Z,0.50
2018-02-27T08:12:46.820Z,0.80
2018-02-27T08:15:14.318Z,0.80
2018-02-27T08:17:42.575Z,1.40
2018-02-27T08:20:10.044Z,1.40
2018-02-27T08:22:38.290Z,0.50
2018-02-27T08:25:05.770Z,0.50
2018-02-27T08:27:33.266Z,0.80
2018-02-27T08:30:00.757Z,1.30
2018-02-27T08:32:28.254Z,1.30
2018-02-27T08:34:56.505Z,1.90
2018-02-27T08:37:23.980Z,1.90
2018-02-27T08:39:51.458Z,2.20
2018-02-27T08:42:19.692Z,1.30
2018-02-27T08:44:47.167Z,1.30
2018-02-27T08:47:14.677Z,1.40
2018-02-27T08:49:42.161Z,1.70
2018-02-27T08:52:11.259Z,1.90
2018-02-27T08:54:38.757Z,1.80
2018-02-27T08:57:07.019Z,2.70
2018-02-27T08:59:34.499Z,2.70
2018-02-27T09:02:01.978Z,3.70
2018-02-27T09:04:29.446Z,4.60
2018-02-27T09:06:56.909Z,4.90
2018-02-27T09:09:24.385Z,5.60
2018-02-27T09:11:51.955Z,5.60
2018-02-27T09:14:19.431Z,4.80
2018-02-27T09:16:47.155Z,5.20
2018-02-27T09:19:14.840Z,4.30
2018-02-27T09:21:43.086Z,5.60
2018-02-27T09:24:10.694Z,5.60
2018-02-27T09:26:38.180Z,4.30
2018-02-27T09:29:06.544Z,5.20
2018-02-27T09:31:35.164Z,4.90
2018-02-27T09:34:03.082Z,4.90
2018-02-27T09:36:32.078Z,3.80
2018-02-27T09:38:59.546Z,3.50
2018-02-27T09:41:27.106Z,4.00
2018-02-27T09:43:55.465Z,4.20
2018-02-27T09:46:23.112Z,3.90
2018-02-27T09:48:50.772Z,4.70
2018-02-27T09:51:18.521Z,4.60
2018-02-27T09:53:46.088Z,5.60
2018-02-27T09:56:13.602Z,4.60
2018-02-27T09:58:41.410Z,4.60
2018-02-27T10:01:08.909Z,5.40
2018-02-27T10:03:36.380Z,5.10
2018-02-27T10:06:04.333Z,4.60
2018-02-27T10:08:32.949Z,5.10
2018-02-27T10:11:00.641Z,5.10
2018-02-27T10:13:28.120Z,5.60
2018-02-27T10:15:55.607Z,4.60
2018-02-27T10:18:24.017Z,3.90
2018-02-27T10:20:52.292Z,4.80
2018-02-27T10:23:20.161Z,4.80
2018-02-27T10:25:48.404Z,3.90
2018-02-27T10:28:15.863Z,3.90
2018-02-27T10:30:43.507Z,4.30
2018-02-27T10:33:12.102Z,4.10
2018-02-27T10:35:39.832Z,4.90
2018-02-27T10:38:07.324Z,4.20
2018-02-27T10:40:34.882Z,4.30
2018-02-27T10:43:02.355Z,3.60
2018-02-27T10:45:30.515Z,2.40
2018-02-27T10:47:58.054Z,2.80
2018-02-27T10:50:25.587Z,3.30
2018-02-27T10:52:53.876Z,3.60
2018-02-27T10:55:21.407Z,3.50
2018-02-27T10:57:48.907Z,2.90
2018-02-27T11:00:22.096Z,2.60
2018-02-27T11:02:49.743Z,2.90
2018-02-27T11:05:17.231Z,3.40
2018-02-27T11:07:45.207Z,3.50
2018-02-27T11:10:12.712Z,3.30
2018-02-27T11:12:41.038Z,4.30
2018-02-27T11:15:08.547Z,4.20
2018-02-27T11:17:36.026Z,3.40
2018-02-27T11:20:03.515Z,3.10
2018-02-27T11:22:31.076Z,3.50
2018-02-27T11:24:58.549Z,2.80
2018-02-27T11:27:26.360Z,3.10
2018-02-27T11:29:54.742Z,3.00
2018-02-27T11:32:22.199Z,2.90
2018-02-27T11:34:49.682Z,3.50
2018-02-27T11:37:17.148Z,3.70
2018-02-27T11:39:44.630Z,3.30
2018-02-27T11:42:12.131Z,3.40
2018-02-27T11:44:39.636Z,4.00
2018-02-27T11:47:07.464Z,3.90
2018-02-27T11:49:34.979Z,3.60
2018-02-27T11:52:02.847Z,3.40
2018-02-27T11:54:30.581Z,3.50
2018-02-27T11:56:58.856Z,3.20
2018-02-27T11:59:27.283Z,3.60
2018-02-27T12:01:54.757Z,3.60
2018-02-27T12:04:22.620Z,3.30
2018-02-27T12:06:50.267Z,3.50
2018-02-27T12:09:17.753Z,3.30
2018-02-27T12:11:45.227Z,4.30
2018-02-27T12:14:13.119Z,4.00
2018-02-27T12:16:41.767Z,2.80
2018-02-27T12:19:09.288Z,2.80
2018-02-27T12:21:36.777Z,2.80
2018-02-27T12:24:04.237Z,2.50
2018-02-27T12:26:31.698Z,2.40
2018-02-27T12:28:59.195Z,2.30
2018-02-27T12:31:27.479Z,1.80
2018-02-27T12:33:55.020Z,1.70
2018-02-27T12:36:22.668Z,2.10
2018-02-27T12:38:51.008Z,2.30
2018-02-27T12:41:18.523Z,2.20
2018-02-27T12:43:47.191Z,1.70
2018-02-27T12:46:14.743Z,1.70
2018-02-27T12:48:42.585Z,1.30
2018-02-27T12:51:10.625Z,1.10
2018-02-27T12:53:38.662Z,0.60
2018-02-27T12:56:06.199Z,0.50
2018-02-27T12:58:33.680Z,0.10
2018-02-27T13:01:01.182Z,0.00
2018-02-27T13:03:29.421Z,-0.60
2018-02-27T13:05:56.910Z,-0.60
2018-02-27T13:08:24.409Z,-0.80
2018-02-27T13:10:51.887Z,-0.80
2018-02-27T13:13:19.407Z,-0.90
2018-02-27T13:15:46.906Z,-0.70
2018-02-27T13:18:14.406Z,-0.50
2018-02-27T13:20:42.011Z,-0.50
2018-02-27T13:23:09.564Z,-0.80
2018-02-27T13:25:37.073Z,-0.80
2018-02-27T13:28:04.560Z,-0.90
2018-02-27T13:30:32.827Z,-0.40
2018-02-27T13:33:00.369Z,-0.50
2018-02-27T13:35:28.334Z,-0.90
2018-02-27T13:37:56.826Z,-1.00
2018-02-27T13:40:24.863Z,-1.10
2018-02-27T13:42:53.414Z,-1.10
2018-02-27T13:45:21.729Z,-0.90
2018-02-27T13:47:49.447Z,-1.00
2018-02-27T13:50:17.912Z,-0.70
2018-02-27T13:52:46.282Z,-0.80
2018-02-27T13:55:13.818Z,-0.80
2018-02-27T13:57:41.284Z,-0.90
2018-02-27T14:00:09.251Z,-1.20
2018-02-27T14:02:36.983Z,-0.90
2018-02-27T14:05:04.891Z,-1.30
2018-02-27T14:07:32.363Z,-1.40
2018-02-27T14:09:59.859Z,-1.40
2018-02-27T14:12:27.355Z,-1.30
2018-02-27T14:14:58.272Z,-1.20
2018-02-27T14:17:25.746Z,-1.20
2018-02-27T14:19:53.279Z,-1.10
2018-02-27T14:22:21.286Z,-1.20
2018-02-27T14:24:49.238Z,-1.40
2018-02-27T14:27:17.012Z,-1.60
2018-02-27T14:29:44.490Z,-1.70
2018-02-27T14:32:11.965Z,-1.50
2018-02-27T14:34:39.545Z,-1.50
2018-02-27T14:37:07.790Z,-1.40
2018-02-27T14:39:35.540Z,-1.40
2018-02-27T14:42:03.716Z,-1.40
2018-02-27T14:44:31.180Z,-1.60
2018-02-27T14:46:58.659Z,-1.40
2018-02-27T14:49:26.129Z,-1.40
2018-02-27T14:51:53.684Z,-1.40
2018-02-27T14:54:21.781Z,-1.50
2018-02-27T14:56:50.015Z,-1.60
2018-02-27T14:59:17.491Z,-1.60
2018-02-27T15:01:44.966Z,-1.80
2018-02-27T15:04:12.451Z,-1.90
2018-02-27T15:06:39.939Z,-2.00
2018-02-27T15:09:07.447Z,-2.10
2018-02-27T15:11:35.703Z,-2.20
2018-02-27T15:14:03.191Z,-2.30
2018-02-27T15:16:31.420Z,-1.90
2018-02-27T15:18:58.880Z,-1.90
2018-02-27T15:21:26.344Z,-1.80
2018-02-27T15:23:53.859Z,-1.80
2018-02-27T15:26:21.338Z,-2.00
2018-02-27T15:28:48.839Z,-2.20
2018-02-27T15:31:16.316Z,-2.20
2018-02-27T15:33:44.953Z,-2.30
2018-02-27T15:36:12.445Z,-2.30
2018-02-27T15:38:39.948Z,-2.30
2018-02-27T15:41:08.215Z,-2.30
2018-02-27T15:43:35.702Z,-2.30
2018-02-27T15:46:03.177Z,-2.40
2018-02-27T15:48:30.689Z,-2.40
2018-02-27T15:50:58.178Z,-2.40
2018-02-27T15:53:25.698Z,-2.30
2018-02-27T15:55:54.523Z,-2.30
2018-02-27T15:58:22.817Z,-2.30
2018-02-27T16:00:50.909Z,-2.30
2018-02-27T16:03:18.463Z,-2.30
2018-02-27T16:05:46.234Z,-2.30
2018-02-27T16:08:13.736Z,-2.30
2018-02-27T16:10:41.289Z,-2.40
2018-02-27T16:13:08.800Z,-2.50
2018-02-27T16:15:36.290Z,-2.60
2018-02-27T16:18:04.627Z,-2.70
2018-02-27T16:20:32.097Z,-2.70
2018-02-27T16:23:00.056Z,-2.70
2018-02-27T16:25:28.123Z,-2.70
2018-02-27T16:27:55.664Z,-2.80
2018-02-27T16:30:23.412Z,-2.90
2018-02-27T16:32:50.954Z,-2.90
2018-02-27T16:35:18.410Z,-3.00
2018-02-27T16:37:46.833Z,-3.10
2018-02-27T16:40:14.780Z,-3.10
2018-02-27T16:42:43.807Z,-3.10
2018-02-27T16:45:11.332Z,-3.10
2018-02-27T16:47:40.241Z,-3.20
2018-02-27T16:50:07.792Z,-3.20
2018-02-27T16:52:35.529Z,-3.20
2018-02-27T16:55:03.027Z,-3.30
2018-02-27T16:57:30.512Z,-3.30
2018-02-27T16:59:58.244Z,-3.40
2018-02-27T17:02:27.292Z,-3.50
2018-02-27T17:04:55.692Z,-3.60
2018-02-27T17:07:23.959Z,-3.60
2018-02-27T17:09:52.260Z,-3.70
2018-02-27T17:12:19.807Z,-3.70
2018-02-27T17:14:47.951Z,-3.70
2018-02-27T17:17:16.564Z,-3.70
2018-02-27T17:19:45.531Z,-3.80
2018-02-27T17:22:13.394Z,-3.80
2018-02-27T17:24:41.418Z,-3.80
2018-02-27T17:27:08.905Z,-3.90
2018-02-27T17:29:36.478Z,-4.00
2018-02-27T17:32:03.974Z,-4.00
2018-02-27T17:34:31.479Z,-4.00
2018-02-27T17:36:59.028Z,-4.10
2018-02-27T17:39:26.592Z,-4.10
2018-02-27T17:41:54.645Z,-4.20
2018-02-27T17:44:22.947Z,-4.10
2018-02-27T17:46:50.477Z,-4.10
2018-02-27T17:49:18.268Z,-4.10
2018-02-27T17:51:45.870Z,-4.20
2018-02-27T17:54:13.408Z,-4.30
2018-02-27T17:56:41.567Z,-4.40
2018-02-27T17:59:09.175Z,-4.30
2018-02-27T18:01:36.708Z,-4.40
2018-02-27T18:04:04.182Z,-4.50
2018-02-27T18:06:31.661Z,-4.50
2018-02-27T18:08:59.905Z,-4.60
2018-02-27T18:11:27.387Z,-4.60
2018-02-27T18:13:55.829Z,-4.60
2018-02-27T18:16:23.953Z,-4.60
2018-02-27T18:18:51.607Z,-4.60
2018-02-27T18:21:19.267Z,-4.60
2018-02-27T18:23:47.034Z,-4.70
2018-02-27T18:26:14.516Z,-4.70
2018-02-27T18:28:42.868Z,-4.80
2018-02-27T18:31:10.425Z,-4.80
2018-02-27T18:33:38.286Z,-4.80
2018-02-27T18:36:05.757Z,-4.90
2018-02-27T18:38:33.306Z,-4.90
2018-02-27T18:41:01.443Z,-5.10
2018-02-27T18:43:29.724Z,-5.10
2018-02-27T18:45:57.198Z,-5.10
2018-02-27T18:48:24.683Z,-5.20
2018-02-27T18:50:53.686Z,-5.30
2018-02-27T18:53:21.249Z,-5.40
2018-02-27T18:55:48.741Z,-5.40
2018-02-27T18:58:18.191Z,-5.40
2018-02-27T19:00:45.865Z,-5.40
2018-02-27T19:03:13.389Z,-5.50
2018-02-27T19:05:41.059Z,-5.50
2018-02-27T19:08:08.599Z,-5.50
2018-02-27T19:10:36.768Z,-5.40
2018-02-27T19:13:04.296Z,-5.50
2018-02-27T19:15:32.537Z,-5.50
2018-02-27T19:18:00.114Z,-5.50
2018-02-27T19:20:27.801Z,-5.60
2018-02-27T19:22:55.345Z,-5.50
2018-02-27T19:25:22.907Z,-5.40
2018-02-27T19:27:51.241Z,-5.60
2018-02-27T19:30:18.737Z,-5.60
2018-02-27T19:32:46.281Z,-5.60
2018-02-27T19:35:13.759Z,-5.60
2018-02-27T19:37:41.273Z,-5.60
2018-02-27T19:40:08.763Z,-5.60
2018-02-27T19:42:36.436Z,-5.70
2018-02-27T19:45:04.019Z,-5.60
2018-02-27T19:47:32.275Z,-5.50
2018-02-27T19:49:59.759Z,-5.60
2018-02-27T19:52:28.031Z,-5.50
2018-02-27T19:54:56.283Z,-5.60
2018-02-27T19:57:23.792Z,-5.60
2018-02-27T19:59:51.606Z,-5.60
2018-02-27T20:02:19.081Z,-5.70
2018-02-27T20:04:46.564Z,-5.70
2018-02-27T20:07:14.123Z,-5.70
2018-02-27T20:09:42.595Z,-5.80
2018-02-27T20:12:10.924Z,-5.80
2018-02-27T20:14:38.534Z,-5.80
2018-02-27T20:17:06.811Z,-5.80
2018-02-27T20:19:35.060Z,-5.80
2018-02-27T20:22:02.699Z,-5.90
2018-02-27T20:24:30.178Z,-5.80
2018-02-27T20:26:58.227Z,-5.70
2018-02-27T20:29:25.910Z,-5.80
2018-02-27T20:31:53.541Z,-5.70
2018-02-27T20:34:21.344Z,-5.80
2018-02-27T20:36:48.873Z,-5.90
2018-02-27T20:39:22.725Z,-5.90
2018-02-27T20:41:50.326Z,-5.90
2018-02-27T20:44:17.816Z,-5.80
2018-02-27T20:46:45.394Z,-5.90
2018-02-27T20:49:13.795Z,-5.80
2018-02-27T20:51:41.419Z,-5.80
2018-02-27T20:54:09.057Z,-5.80
2018-02-27T20:56:36.578Z,-5.80
2018-02-27T20:59:04.075Z,-5.80
2018-02-27T21:01:31.617Z,-5.80
2018-02-27T21:03:59.890Z,-5.90
2018-02-27T21:06:27.597Z,-5.90
2018-02-27T21:08:56.236Z,-5.90
2018-02-27T21:11:23.782Z,-5.90
2018-02-27T21:13:51.280Z,-6.00
2018-02-27T21:16:19.763Z,-6.10
2018-02-27T21:18:47.612Z,-6.10
2018-02-27T21:21:15.952Z,-6.10
2018-02-27T21:23:43.483Z,-6.10
2018-02-27T21:26:10.996Z,-6.10
2018-02-27T21:28:38.802Z,-6.20
2018-02-27T21:31:06.328Z,-6.20
2018-02-27T21:33:34.799Z,-6.30
2018-02-27T21:36:03.128Z,-6.30
2018-02-27T21:38:30.683Z,-6.30
2018-02-27T21:40:58.395Z,-6.20
2018-02-27T21:43:25.940Z,-6.20
2018-02-27T21:45:54.225Z,-6.30
2018-02-27T21:48:21.731Z,-6.30
2018-02-27T21:50:49.216Z,-6.30
2018-02-27T21:53:16.752Z,-6.40
2018-02-27T21:55:44.261Z,-6.40
2018-02-27T21:58:11.780Z,-6.50
2018-02-27T22:00:39.282Z,-6.50
2018-02-27T22:03:06.800Z,-6.60
2018-02-27T22:05:34.383Z,-6.70
2018-02-27T22:08:01.862Z,-6.70
2018-02-27T22:10:29.477Z,-6.90
2018-02-27T22:12:56.949Z,-7.10
2018-02-27T22:15:24.454Z,-7.30
2018-02-27T22:17:52.599Z,-7.30
2018-02-27T22:20:20.261Z,-7.40
2018-02-27T22:22:48.329Z,-7.40
2018-02-27T22:25:16.013Z,-7.40
2018-02-27T22:27:43.506Z,-7.30
2018-02-27T22:30:11.746Z,-7.30
2018-02-27T22:32:39.461Z,-7.30
2018-02-27T22:35:06.958Z,-7.20
2018-02-27T22:37:34.445Z,-7.20
2018-02-27T22:40:02.002Z,-7.20
2018-02-27T22:42:29.552Z,-7.30
2018-02-27T22:44:57.048Z,-7.30
2018-02-27T22:47:25.005Z,-7.30
2018-02-27T22:49:52.520Z,-7.40
2018-02-27T22:52:20.003Z,-7.50
2018-02-27T22:54:47.530Z,-7.60
2018-02-27T22:57:15.074Z,-7.70
2018-02-27T22:59:42.583Z,-7.80
2018-02-27T23:02:10.139Z,-7.90
2018-02-27T23:04:38.452Z,-8.00
2018-02-27T23:07:05.939Z,-8.00
2018-02-27T23:09:33.432Z,-8.10
2018-02-27T23:12:00.915Z,-8.30
2018-02-27T23:14:29.159Z,-8.50
2018-02-27T23:16:56.651Z,-8.50
2018-02-27T23:19:24.922Z,-8.60
2018-02-27T23:21:53.161Z,-8.80
2018-02-27T23:24:21.999Z,-8.80
2018-02-27T23:26:51.934Z,-8.80
2018-02-27T23:29:20.622Z,-8.90
2018-02-27T23:31:48.937Z,-8.80
2018-02-27T23:34:16.648Z,-8.70
2018-02-27T23:36:44.122Z,-8.60
2018-02-27T23:39:11.596Z,-8.70
2018-02-27T23:41:39.138Z,-8.80
2018-02-27T23:44:06.706Z,-8.70
2018-02-27T23:46:34.409Z,-8.60
2018-02-27T23:49:01.875Z,-8.60
2018-02-27T23:51:29.385Z,-8.60
2018-02-27T23:53:56.839Z,-8.70
2018-02-27T23:56:24.322Z,-8.80
2018-02-27T23:58:51.922Z,-9.00
